createdAt,value
2022-12-11T00:00:48.240Z,12.27
2022-12-11T00:03:17.664Z,12.38
2022-12-11T00:05:45.874Z,12.75
2022-12-11T00:08:13.665Z,11.68
2022-12-11T00:10:47.089Z,13.90
2022-12-11T00:13:14.295Z,16.55
2022-12-11T00:15:41.070Z,15.82
2022-12-11T00:18:12.183Z,14.88
2022-12-11T00:20:38.955Z,13.52
2022-12-11T00:23:05.799Z,13.73
2022-12-11T00:25:32.560Z,12.18
2022-12-11T00:27:59.435Z,12.68
2022-12-11T00:30:26.219Z,13.57
2022-12-11T00:32:53.015Z,13.00
2022-12-11T00:35:19.840Z,11.80
2022-12-11T00:37:46.624Z,12.48
2022-12-11T00:40:13.405Z,12.50
2022-12-11T00:42:40.187Z,13.07
2022-12-11T00:45:07.688Z,14.00
2022-12-11T00:47:35.069Z,17.10
2022-12-11T00:50:01.861Z,18.42
2022-12-11T00:52:28.723Z,16.27
2022-12-11T00:54:55.668Z,17.42
2022-12-11T00:57:22.654Z,15.20
2022-12-11T00:59:49.678Z,14.43
2022-12-11T01:02:16.439Z,14.80
2022-12-11T01:04:43.658Z,12.88
2022-12-11T01:07:10.499Z,12.93
2022-12-11T01:09:56.047Z,12.35
2022-12-11T01:12:22.911Z,11.63
2022-12-11T01:14:49.703Z,12.45
2022-12-11T01:17:16.483Z,14.02
2022-12-11T01:19:43.252Z,13.65
2022-12-11T01:22:10.032Z,13.95
2022-12-11T01:24:37.076Z,12.90
2022-12-11T01:27:04.319Z,11.68
2022-12-11T01:29:31.228Z,13.02
2022-12-11T01:31:58.040Z,12.00
2022-12-11T01:34:24.827Z,13.07
2022-12-11T01:36:52.790Z,12.90
2022-12-11T01:39:19.570Z,12.55
2022-12-11T01:41:46.440Z,12.23
2022-12-11T01:44:16.195Z,13.95
2022-12-11T01:46:43.545Z,13.18
2022-12-11T01:49:13.844Z,11.38
2022-12-11T01:51:58.544Z,13.38
2022-12-11T01:54:27.975Z,14.35
2022-12-11T01:56:57.630Z,13.27
2022-12-11T01:59:28.063Z,12.93
2022-12-11T02:02:11.104Z,13.27
2022-12-11T02:04:40.074Z,12.85
2022-12-11T02:07:06.903Z,13.95
2022-12-11T02:09:37.100Z,14.85
2022-12-11T02:12:31.261Z,13.40
2022-12-11T02:15:16.682Z,13.68
2022-12-11T02:17:52.584Z,13.57
2022-12-11T02:20:38.093Z,14.00
2022-12-11T02:23:26.144Z,15.50
2022-12-11T02:26:17.955Z,13.57
2022-12-11T02:28:50.607Z,14.07
2022-12-11T02:31:29.666Z,14.40
2022-12-11T02:34:03.308Z,14.38
2022-12-11T02:36:35.087Z,13.23
2022-12-11T02:39:04.093Z,13.45
2022-12-11T02:41:33.744Z,14.30
2022-12-11T02:44:02.467Z,13.40
2022-12-11T02:46:31.384Z,13.45
2022-12-11T02:48:58.679Z,13.50
2022-12-11T02:51:30.698Z,15.63
2022-12-11T02:53:59.431Z,13.57
2022-12-11T02:56:58.814Z,12.70
2022-12-11T02:59:39.508Z,14.75
2022-12-11T03:02:07.052Z,13.57
2022-12-11T03:04:36.236Z,13.98
2022-12-11T03:07:12.256Z,14.95
2022-12-11T03:09:41.385Z,14.30
2022-12-11T03:12:11.592Z,12.75
2022-12-11T03:14:40.700Z,13.88
2022-12-11T03:17:21.172Z,13.23
2022-12-11T03:20:12.573Z,13.98
2022-12-11T03:22:47.396Z,15.48
2022-12-11T03:25:22.261Z,13.25
2022-12-11T03:28:03.312Z,14.20
2022-12-11T03:30:33.719Z,14.13
2022-12-11T03:33:15.442Z,13.93
2022-12-11T03:35:51.499Z,15.35
2022-12-11T03:40:54.623Z,13.30
2022-12-11T03:43:23.290Z,13.48
2022-12-11T03:45:52.136Z,14.48
2022-12-11T03:48:20.129Z,15.20
2022-12-11T03:50:48.696Z,14.82
2022-12-11T03:53:16.514Z,14.13
2022-12-11T03:55:43.686Z,13.80
2022-12-11T03:58:10.725Z,13.85
2022-12-11T04:00:38.378Z,13.32
2022-12-11T04:03:14.889Z,14.85
2022-12-11T04:05:47.660Z,14.15
2022-12-11T04:08:15.377Z,14.55
2022-12-11T04:10:42.525Z,15.10
2022-12-11T04:13:10.160Z,14.77
2022-12-11T04:15:38.007Z,14.77
2022-12-11T04:18:25.061Z,13.95
2022-12-11T04:21:14.549Z,14.60
2022-12-11T04:23:59.901Z,14.15
2022-12-11T04:26:27.092Z,13.77
2022-12-11T04:28:53.979Z,13.93
2022-12-11T04:31:22.414Z,13.90
2022-12-11T04:33:49.663Z,14.07
2022-12-11T04:36:17.039Z,13.18
2022-12-11T04:38:43.893Z,13.40
2022-12-11T04:41:12.452Z,12.57
2022-12-11T04:43:39.809Z,12.90
2022-12-11T04:46:09.410Z,13.90
2022-12-11T04:48:38.056Z,12.82
2022-12-11T04:51:05.879Z,12.82
2022-12-11T04:53:32.837Z,13.18
2022-12-11T04:55:59.728Z,13.48
2022-12-11T04:58:27.395Z,13.35
2022-12-11T05:00:54.211Z,13.50
2022-12-11T05:03:21.020Z,14.18
2022-12-11T05:05:52.740Z,13.85
2022-12-11T05:08:21.249Z,13.38
2022-12-11T05:11:03.032Z,14.15
2022-12-11T05:13:30.680Z,13.48
2022-12-11T05:15:58.033Z,14.63
2022-12-11T05:18:25.876Z,13.52
2022-12-11T05:21:04.436Z,15.25
2022-12-11T05:23:31.717Z,13.18
2022-12-11T05:26:04.372Z,13.30
2022-12-11T05:28:33.810Z,13.32
2022-12-11T05:31:03.725Z,13.30
2022-12-11T05:33:31.452Z,14.90
2022-12-11T05:35:58.619Z,13.40
2022-12-11T05:38:25.659Z,13.20
2022-12-11T05:41:04.096Z,13.82
2022-12-11T05:43:33.538Z,14.52
2022-12-11T05:46:13.020Z,12.73
2022-12-11T05:48:41.080Z,12.82
2022-12-11T05:51:08.403Z,14.65
2022-12-11T05:53:37.204Z,14.48
2022-12-11T05:56:04.798Z,14.82
2022-12-11T05:58:32.300Z,14.27
2022-12-11T06:01:00.560Z,14.90
2022-12-11T06:03:27.828Z,12.98
2022-12-11T06:05:54.777Z,15.13
2022-12-11T06:08:21.603Z,14.48
2022-12-11T06:10:49.700Z,12.93
2022-12-11T06:13:17.486Z,13.88
2022-12-11T06:15:44.603Z,16.45
2022-12-11T06:18:12.064Z,15.77
2022-12-11T06:20:40.187Z,14.27
2022-12-11T06:23:07.112Z,15.00
2022-12-11T06:25:34.068Z,16.70
2022-12-11T06:28:00.930Z,15.07
2022-12-11T06:30:38.530Z,15.40
2022-12-11T06:33:07.065Z,15.00
2022-12-11T06:35:40.097Z,14.18
2022-12-11T06:38:08.775Z,13.27
2022-12-11T06:40:35.610Z,12.20
2022-12-11T06:43:03.541Z,14.20
2022-12-11T06:45:30.864Z,15.38
2022-12-11T06:47:58.929Z,13.52
2022-12-11T06:50:26.374Z,15.70
2022-12-11T06:52:53.360Z,15.90
2022-12-11T06:55:20.243Z,15.02
2022-12-11T06:57:47.043Z,14.52
2022-12-11T07:00:15.482Z,14.98
2022-12-11T07:02:42.798Z,13.32
2022-12-11T07:05:10.087Z,12.93
2022-12-11T07:07:37.146Z,15.48
2022-12-11T07:10:08.342Z,15.88
2022-12-11T07:12:35.825Z,16.35
2022-12-11T07:15:03.132Z,14.95
2022-12-11T07:17:30.520Z,16.95
2022-12-11T07:19:57.452Z,14.85
2022-12-11T07:22:24.360Z,15.52
2022-12-11T07:24:51.200Z,15.00
2022-12-11T07:27:17.984Z,16.73
2022-12-11T07:29:45.337Z,15.18
2022-12-11T07:32:12.289Z,15.90
2022-12-11T07:34:39.313Z,14.85
2022-12-11T07:37:06.111Z,15.77
2022-12-11T07:39:33.196Z,14.95
2022-12-11T07:42:00.240Z,15.55
2022-12-11T07:44:27.100Z,14.60
2022-12-11T07:46:53.862Z,13.57
2022-12-11T07:49:20.732Z,15.00
2022-12-11T07:51:47.525Z,14.40
2022-12-11T07:54:17.022Z,13.93
2022-12-11T07:56:48.622Z,15.07
2022-12-11T07:59:21.061Z,14.60
2022-12-11T08:01:48.740Z,14.55
2022-12-11T08:04:15.986Z,15.98
2022-12-11T08:06:43.534Z,16.55
2022-12-11T08:09:18.921Z,17.10
2022-12-11T08:11:49.822Z,16.27
2022-12-11T08:14:16.763Z,16.75
2022-12-11T08:16:44.240Z,17.30
2022-12-11T08:19:12.650Z,15.43
2022-12-11T08:21:40.327Z,17.95
2022-12-11T08:24:08.624Z,17.55
2022-12-11T08:26:35.510Z,17.05
2022-12-11T08:29:03.105Z,21.55
2022-12-11T08:31:30.103Z,22.08
2022-12-11T08:33:57.611Z,18.67
2022-12-11T08:36:24.946Z,18.10
2022-12-11T08:38:53.767Z,14.93
2022-12-11T08:41:23.373Z,16.50
2022-12-11T08:43:52.915Z,17.67
2022-12-11T08:46:19.848Z,17.30
2022-12-11T08:48:46.822Z,15.30
2022-12-11T08:51:15.528Z,28.15
2022-12-11T08:53:42.890Z,19.52
2022-12-11T08:56:21.571Z,17.60
2022-12-11T08:58:48.488Z,18.20
2022-12-11T09:01:18.216Z,17.10
2022-12-11T09:03:45.301Z,16.80
2022-12-11T09:06:14.996Z,15.85
2022-12-11T09:08:47.190Z,16.23
2022-12-11T09:11:32.847Z,15.13
2022-12-11T09:14:06.862Z,15.85
2022-12-11T09:16:37.959Z,16.33
2022-12-11T09:19:06.823Z,16.50
2022-12-11T09:21:33.788Z,15.90
2022-12-11T09:24:01.945Z,16.77
2022-12-11T09:26:30.099Z,17.08
2022-12-11T09:28:57.076Z,18.05
2022-12-11T09:31:27.656Z,17.23
2022-12-11T09:33:56.657Z,18.05
2022-12-11T09:36:24.219Z,20.48
2022-12-11T09:38:51.439Z,18.52
2022-12-11T09:41:21.510Z,16.95
2022-12-11T09:43:54.396Z,18.00
2022-12-11T09:46:24.565Z,17.92
2022-12-11T09:48:53.711Z,17.50
2022-12-11T09:51:42.173Z,19.50
2022-12-11T09:54:13.365Z,17.02
2022-12-11T09:56:50.761Z,17.27
2022-12-11T09:59:53.230Z,17.63
2022-12-11T10:02:43.317Z,19.15
2022-12-11T10:05:29.832Z,16.88
2022-12-11T10:08:00.794Z,16.10
2022-12-11T10:10:44.034Z,16.95
2022-12-11T10:13:36.283Z,16.13
2022-12-11T10:16:18.978Z,16.85
2022-12-11T10:18:47.568Z,16.80
2022-12-11T10:21:18.988Z,18.27
2022-12-11T10:23:50.880Z,19.33
2022-12-11T10:26:20.063Z,19.10
2022-12-11T10:28:47.243Z,19.88
2022-12-11T10:31:35.402Z,19.75
2022-12-11T10:34:04.913Z,18.50
2022-12-11T10:36:36.513Z,20.35
2022-12-11T10:39:04.019Z,18.25
2022-12-11T10:41:39.808Z,19.17
2022-12-11T10:44:26.482Z,18.00
2022-12-11T10:47:04.499Z,18.45
2022-12-11T10:49:34.421Z,18.90
2022-12-11T10:52:09.314Z,18.75
2022-12-11T10:54:39.422Z,20.10
2022-12-11T10:57:09.064Z,20.08
2022-12-11T10:59:38.069Z,21.23
2022-12-11T11:02:07.548Z,18.67
2022-12-11T11:04:38.749Z,20.17
2022-12-11T11:07:16.859Z,19.65
2022-12-11T11:09:43.717Z,17.65
2022-12-11T11:12:21.300Z,17.35
2022-12-11T11:14:59.472Z,17.58
2022-12-11T11:17:29.583Z,19.30
2022-12-11T11:20:12.026Z,18.08
2022-12-11T11:22:48.392Z,17.70
2022-12-11T11:25:29.879Z,17.88
2022-12-11T11:27:59.895Z,18.45
2022-12-11T11:30:33.435Z,16.88
2022-12-11T11:33:14.330Z,17.08
2022-12-11T11:35:53.492Z,17.17
2022-12-11T11:38:23.960Z,17.35
2022-12-11T11:41:14.704Z,16.63
2022-12-11T11:43:54.358Z,17.05
2022-12-11T11:46:27.840Z,17.55
2022-12-11T11:49:07.784Z,18.73
2022-12-11T11:51:43.044Z,17.85
2022-12-11T11:54:31.542Z,17.40
2022-12-11T11:57:01.534Z,16.15
2022-12-11T11:59:47.200Z,17.10
2022-12-11T12:02:16.717Z,17.13
2022-12-11T12:04:45.187Z,16.55
2022-12-11T12:07:30.182Z,17.90
2022-12-11T12:10:10.208Z,16.67
2022-12-11T12:13:03.327Z,17.95
2022-12-11T12:15:43.827Z,16.92
2022-12-11T12:18:27.956Z,16.27
2022-12-11T12:21:00.188Z,15.48
2022-12-11T12:23:54.458Z,17.58
2022-12-11T12:26:29.246Z,16.63
2022-12-11T12:29:33.652Z,16.58
2022-12-11T12:32:32.684Z,18.35
2022-12-11T12:35:34.702Z,18.50
2022-12-11T12:38:14.802Z,16.35
2022-12-11T12:40:55.584Z,18.20
2022-12-11T12:43:37.352Z,18.23
2022-12-11T12:46:20.976Z,19.58
2022-12-11T12:48:49.357Z,18.40
2022-12-11T12:51:17.603Z,18.45
2022-12-11T12:53:55.503Z,17.35
2022-12-11T12:56:23.845Z,16.48
2022-12-11T12:58:50.834Z,18.10
2022-12-11T13:01:24.204Z,17.65
2022-12-11T13:04:05.744Z,19.33
2022-12-11T13:06:45.304Z,19.10
2022-12-11T13:09:17.471Z,16.85
2022-12-11T13:11:45.950Z,17.25
2022-12-11T13:14:15.562Z,17.70
2022-12-11T13:16:44.440Z,19.70
2022-12-11T13:19:27.963Z,18.02
2022-12-11T13:22:02.095Z,20.23
2022-12-11T13:24:31.901Z,19.48
2022-12-11T13:27:23.435Z,19.02
2022-12-11T13:29:50.414Z,18.52
2022-12-11T13:32:17.173Z,18.85
2022-12-11T13:34:59.023Z,17.77
2022-12-11T13:37:43.828Z,19.20
2022-12-11T13:40:27.497Z,17.02
2022-12-11T13:43:01.180Z,17.52
2022-12-11T13:45:34.665Z,18.92
2022-12-11T13:48:01.644Z,18.67
2022-12-11T13:50:34.284Z,18.98
2022-12-11T13:53:03.373Z,16.95
2022-12-11T13:55:33.088Z,17.85
2022-12-11T13:58:00.755Z,18.23
2022-12-11T14:00:32.151Z,18.77
2022-12-11T14:03:04.542Z,18.15
2022-12-11T14:05:31.568Z,17.42
2022-12-11T14:08:03.938Z,15.60
2022-12-11T14:10:33.030Z,18.40
2022-12-11T14:13:01.711Z,17.88
2022-12-11T14:15:29.889Z,17.13
2022-12-11T14:17:57.945Z,20.05
2022-12-11T14:20:33.252Z,17.13
2022-12-11T14:23:19.010Z,18.08
2022-12-11T14:25:59.915Z,16.52
2022-12-11T14:28:29.775Z,16.95
2022-12-11T14:30:59.647Z,18.30
2022-12-11T14:33:32.421Z,17.58
2022-12-11T14:36:00.351Z,17.42
2022-12-11T14:38:44.102Z,18.45
2022-12-11T14:41:19.541Z,16.55
2022-12-11T14:43:51.419Z,19.17
2022-12-11T14:46:28.886Z,17.73
2022-12-11T14:49:01.820Z,18.08
2022-12-11T14:51:33.688Z,17.90
2022-12-11T14:54:01.560Z,17.23
2022-12-11T14:56:30.181Z,16.90
2022-12-11T14:59:04.051Z,18.15
2022-12-11T15:01:36.199Z,17.05
2022-12-11T15:04:27.051Z,19.35
2022-12-11T15:06:53.820Z,17.85
2022-12-11T15:09:38.465Z,17.95
2022-12-11T15:12:14.174Z,17.10
2022-12-11T15:17:21.548Z,16.80
2022-12-11T15:19:51.807Z,16.08
2022-12-11T15:22:23.828Z,17.25
2022-12-11T15:24:53.645Z,17.35
2022-12-11T15:27:36.807Z,17.67
2022-12-11T15:30:16.278Z,17.40
2022-12-11T15:32:43.124Z,16.42
2022-12-11T15:35:25.071Z,18.33
2022-12-11T15:37:53.921Z,15.93
2022-12-11T15:40:21.029Z,18.92
2022-12-11T15:42:49.309Z,16.27
2022-12-11T15:45:19.775Z,17.33
2022-12-11T15:47:47.660Z,17.42
2022-12-11T15:50:19.048Z,17.35
2022-12-11T15:52:46.556Z,17.65
2022-12-11T15:55:14.204Z,17.48
2022-12-11T15:57:55.811Z,16.70
2022-12-11T16:00:24.002Z,17.38
2022-12-11T16:02:52.035Z,17.90
2022-12-11T16:05:19.316Z,19.48
2022-12-11T16:07:46.260Z,19.75
2022-12-11T16:10:16.062Z,19.08
2022-12-11T16:12:43.408Z,17.83
2022-12-11T16:15:21.457Z,19.35
2022-12-11T16:17:49.871Z,19.30
2022-12-11T16:20:17.498Z,17.05
2022-12-11T16:22:44.681Z,17.50
2022-12-11T16:25:11.913Z,16.77
2022-12-11T16:27:38.966Z,18.02
2022-12-11T16:30:06.451Z,18.65
2022-12-11T16:32:33.400Z,17.77
2022-12-11T16:35:01.121Z,18.13
2022-12-11T16:37:28.132Z,18.42
2022-12-11T16:39:55.040Z,17.98
2022-12-11T16:42:21.855Z,17.85
2022-12-11T16:44:49.099Z,17.83
2022-12-11T16:47:16.051Z,18.13
2022-12-11T16:49:43.363Z,19.33
2022-12-11T16:52:10.721Z,16.65
2022-12-11T16:54:37.659Z,18.92
2022-12-11T16:57:04.604Z,18.02
2022-12-11T16:59:36.828Z,17.38
2022-12-11T17:02:05.006Z,16.40
2022-12-11T17:04:32.610Z,17.95
2022-12-11T17:06:59.426Z,17.13
2022-12-11T17:09:26.230Z,20.05
2022-12-11T17:11:53.824Z,17.90
2022-12-11T17:14:20.695Z,18.13
2022-12-11T17:16:48.192Z,15.98
2022-12-11T17:19:15.696Z,18.13
2022-12-11T17:21:45.896Z,18.10
2022-12-11T17:24:17.874Z,16.80
2022-12-11T17:26:44.647Z,17.38
2022-12-11T17:29:12.627Z,15.90
2022-12-11T17:31:39.649Z,18.50
2022-12-11T17:34:07.075Z,18.40
2022-12-11T17:36:34.312Z,16.48
2022-12-11T17:39:01.397Z,17.60
2022-12-11T17:41:28.351Z,17.38
2022-12-11T17:43:56.092Z,17.27
2022-12-11T17:46:23.364Z,16.08
2022-12-11T17:48:50.447Z,16.60
2022-12-11T17:51:21.999Z,16.42
2022-12-11T17:53:48.896Z,16.40
2022-12-11T17:56:16.379Z,17.02
2022-12-11T17:58:43.232Z,16.98
2022-12-11T18:01:12.319Z,17.60
2022-12-11T18:03:40.218Z,16.50
2022-12-11T18:06:12.837Z,15.60
2022-12-11T18:08:40.370Z,16.25
2022-12-11T18:11:09.990Z,16.90
2022-12-11T18:13:37.011Z,16.10
2022-12-11T18:16:10.212Z,15.10
2022-12-11T18:18:37.688Z,16.17
2022-12-11T18:21:05.244Z,15.40
2022-12-11T18:23:32.119Z,15.23
2022-12-11T18:25:58.980Z,13.70
2022-12-11T18:28:25.842Z,15.60
2022-12-11T18:30:53.477Z,15.93
2022-12-11T18:33:21.832Z,15.07
2022-12-11T18:35:50.498Z,15.60
2022-12-11T18:38:17.451Z,14.43
2022-12-11T18:40:44.252Z,15.23
2022-12-11T18:43:11.273Z,15.32
2022-12-11T18:45:42.077Z,16.98
2022-12-11T18:48:09.794Z,16.88
2022-12-11T18:50:36.621Z,15.07
2022-12-11T18:53:04.305Z,15.05
2022-12-11T18:55:32.298Z,14.07
2022-12-11T18:57:59.167Z,14.98
2022-12-11T19:00:26.589Z,14.82
2022-12-11T19:02:53.430Z,14.63
2022-12-11T19:05:20.297Z,14.90
2022-12-11T19:07:47.193Z,15.10
2022-12-11T19:10:14.377Z,15.75
2022-12-11T19:12:42.877Z,14.00
2022-12-11T19:15:10.938Z,13.35
2022-12-11T19:17:38.554Z,15.05
2022-12-11T19:20:32.253Z,14.35
2022-12-11T19:22:55.159Z,13.90
2022-12-11T19:25:21.982Z,14.82
2022-12-11T19:27:50.132Z,13.32
2022-12-11T19:30:17.225Z,13.30
2022-12-11T19:32:45.871Z,13.45
2022-12-11T19:35:14.510Z,13.68
2022-12-11T19:37:41.383Z,12.32
2022-12-11T19:40:09.457Z,12.60
2022-12-11T19:42:36.251Z,12.60
2022-12-11T19:45:03.732Z,12.25
2022-12-11T19:47:30.540Z,13.90
2022-12-11T19:49:57.330Z,16.90
2022-12-11T19:52:24.162Z,12.20
2022-12-11T19:54:51.270Z,13.50
2022-12-11T19:57:18.053Z,12.80
2022-12-11T19:59:44.952Z,13.55
2022-12-11T20:02:12.583Z,12.73
2022-12-11T20:04:39.623Z,11.57
2022-12-11T20:07:07.152Z,12.95
2022-12-11T20:09:33.948Z,12.35
2022-12-11T20:12:02.321Z,11.68
2022-12-11T20:14:29.455Z,14.13
2022-12-11T20:17:14.770Z,12.55
2022-12-11T20:19:42.275Z,10.85
2022-12-11T20:22:09.492Z,14.27
2022-12-11T20:24:36.684Z,12.20
2022-12-11T20:27:03.658Z,13.65
2022-12-11T20:29:30.636Z,15.05
2022-12-11T20:31:59.690Z,14.32
2022-12-11T20:34:27.118Z,13.15
2022-12-11T20:36:54.584Z,14.27
2022-12-11T20:39:21.491Z,15.25
2022-12-11T20:41:48.272Z,15.65
2022-12-11T20:44:15.092Z,15.02
2022-12-11T20:46:41.872Z,14.88
2022-12-11T20:49:12.863Z,14.63
2022-12-11T20:51:40.719Z,13.52
2022-12-11T20:54:07.547Z,14.75
2022-12-11T20:56:34.405Z,13.80
2022-12-11T20:59:01.312Z,13.45
2022-12-11T21:01:30.822Z,14.07
2022-12-11T21:03:58.583Z,14.20
2022-12-11T21:06:31.224Z,15.40
2022-12-11T21:09:03.162Z,14.68
2022-12-11T21:11:30.043Z,15.05
2022-12-11T21:13:56.903Z,14.20
2022-12-11T21:16:24.434Z,13.48
2022-12-11T21:18:51.975Z,14.02
2022-12-11T21:21:19.976Z,13.50
2022-12-11T21:23:46.776Z,12.32
2022-12-11T21:26:14.368Z,11.70
2022-12-11T21:28:41.764Z,13.00
2022-12-11T21:31:11.899Z,12.35
2022-12-11T21:33:39.115Z,9.68
2022-12-11T21:36:07.111Z,10.23
2022-12-11T21:38:33.986Z,9.57
2022-12-11T21:41:13.784Z,8.50
2022-12-11T21:44:12.948Z,9.88
2022-12-11T21:46:29.678Z,9.73
2022-12-11T21:48:56.521Z,9.07
2022-12-11T21:51:35.685Z,9.43
2022-12-11T21:54:06.312Z,10.75
2022-12-11T21:56:33.378Z,9.98
2022-12-11T21:59:01.545Z,9.45
2022-12-11T22:01:33.536Z,8.30
2022-12-11T22:04:00.749Z,8.88
2022-12-11T22:06:28.351Z,8.15
2022-12-11T22:08:56.211Z,8.68
2022-12-11T22:11:26.942Z,9.93
2022-12-11T22:13:54.027Z,9.90
2022-12-11T22:16:21.199Z,9.80
2022-12-11T22:18:48.271Z,9.55
2022-12-11T22:21:15.744Z,9.23
2022-12-11T22:23:43.423Z,9.60
2022-12-11T22:26:15.783Z,10.15
2022-12-11T22:28:42.692Z,10.30
2022-12-11T22:31:14.596Z,10.20
2022-12-11T22:33:41.419Z,11.02
2022-12-11T22:36:09.823Z,11.13
2022-12-11T22:38:36.859Z,10.38
2022-12-11T22:41:26.065Z,11.50
2022-12-11T22:43:53.912Z,12.73
2022-12-11T22:46:23.946Z,13.52
2022-12-11T22:48:51.324Z,13.48
2022-12-11T22:51:18.416Z,13.25
2022-12-11T22:53:45.292Z,14.30
2022-12-11T22:56:14.141Z,13.75
2022-12-11T22:58:42.320Z,13.23
2022-12-11T23:01:12.970Z,12.05
2022-12-11T23:03:40.573Z,11.65
2022-12-11T23:06:11.223Z,9.73
2022-12-11T23:08:39.453Z,10.85
2022-12-11T23:11:22.215Z,9.80
2022-12-11T23:13:49.018Z,8.82
2022-12-11T23:16:16.111Z,10.25
2022-12-11T23:18:43.524Z,9.05
2022-12-11T23:21:10.885Z,9.43
2022-12-11T23:23:37.996Z,10.40
2022-12-11T23:26:05.702Z,10.50
2022-12-11T23:28:32.499Z,10.30
2022-12-11T23:30:59.386Z,10.38
2022-12-11T23:33:26.459Z,11.88
2022-12-11T23:35:54.272Z,10.95
2022-12-11T23:38:21.127Z,12.35
2022-12-11T23:40:47.910Z,11.32
2022-12-11T23:43:14.811Z,9.77
2022-12-11T23:45:44.759Z,12.63
2022-12-11T23:48:12.703Z,12.77
2022-12-11T23:50:41.304Z,11.43
2022-12-11T23:53:08.311Z,12.38
2022-12-11T23:55:35.247Z,11.98
2022-12-11T23:58:02.019Z,11.95
